首页
METAR-TAF:

METAR-TAF

机场 :

比绍, 幾內亞比索

纬度: 11-53N, 经度: 015-39W, 海拔: 39米

当前天气观测

该预报发布于1小时和9分钟前的19:00 UTC
风速4节,风向西南,在南转西南西之间变化
温度 33°C
湿度 59%
气压 1009 hPa
能见度10公里或以上
少量云层高于1400英尺

METAR: GGOV 231900Z 23004KT 200V270 9999 FEW014 33/24 Q1009 NOSIG

时间: 20:09 (20:09 UTC)

预报

该预报发布于3小时和9分钟前的17:00 UTC
预报有效从23日的 18点(UTC)到 24日的 18点(UTC)
风速8节,风向西南
能見度: 8000
散云层高于1400英尺
几率 40% :
短暂存在
从 23日的 20点(UTC)到 23日的 24点(UTC)
多云层高于1000英尺
少量云层高于2000英尺, 积雨云.
雷暴,

TAF: GGOV 231700Z 2318/2418 23008KT 8000 SCT014 PROB40 TEMPO 2320/2324 TS BKN010 FEW020CB

超过4000个机场的气象观测和天气预报(METAR&TAF报告)。

可查询的气象台以黄色和红色小点在地图上表示。

将鼠标移到小点上方,可查看气象台名称。

然后点击查看天气观测和预报。

如需切换地图:点击带黑十字的绿色按钮放大地图;点击带横线的绿色按钮缩小地图;或者点击绿色箭头查看邻近地区的地图。


METAR-TAF: